Buoy 46770

sailwx.info

Track history (hours):
 
Tides and Currents Weather Stations Pressure Air Temp Water Temp Dewpoint Dewpoint Depression Visibility Wind Speed Wind Dir Waves Ship Positions

Drifting buoy 46770

Last reported at 2014-Nov-28 09:30 UTC. Time now 2014-Nov-28 12:16 UTC.
Position N 53°05' E 177°07'.

Barometer 1015.8 mb
Water temperature 5.5 ° C

Date/timePositionNaut miles runAvg speedWind from/ knotsBaromVisibWave heightAir tempDewpointWater temp
2014-Nov-28 09:30N 53°05' E 177°07'1 0.5 1015.8 5.5
2014-Nov-28 07:30N 53°05' E 177°06'2 0.6 1014.4 5.5
2014-Nov-28 04:30N 53°04' E 177°04'0 0.0 1010.9 5.4
2014-Nov-28 03:30N 53°04' E 177°04'0 0.4 1009.7 5.4
2014-Nov-28 02:30N 53°04' E 177°03'1 0.6 1008.5 5.4
2014-Nov-28 01:30N 53°03' E 177°03'0 0.4 1007.2 5.3
2014-Nov-28 00:30N 53°03' E 177°02'1 0.6 1006.0 5.3
2014-Nov-27 23:30N 53°02' E 177°02'0 0.4 1004.8 5.3
2014-Nov-27 22:30N 53°03' E 177°02'1 0.7 1003.6 5.3
2014-Nov-27 21:30N 53°02' E 177°01'0 0.2 1002.4 5.3
2014-Nov-27 20:30N 53°03' E 177°01'1 0.7 1001.5 5.3
2014-Nov-27 19:30N 53°02' E 177°01'1 0.4 1000.5 5.3
2014-Nov-27 17:30N 53°02' E 177°00'0 0.0 999.5 5.3
2014-Nov-27 16:30N 53°02' E 177°00'1 0.5 999.4 5.3
2014-Nov-27 15:30N 53°01' E 176°60'2 1.0 999.3 5.3
2014-Nov-27 13:30N 53°00' E 176°57'1 0.2 999.2 5.3
2014-Nov-27 08:30N 52°59' E 176°56'0 0.1 997.5 5.3
2014-Nov-27 07:30N 52°59' E 176°56'1 0.3 996.8 5.3
2014-Nov-27 03:30N 52°59' E 176°54'0 0.5 993.4 5.3
2014-Nov-27 02:30N 52°60' E 176°53'1 0.9 992.6 5.3
2014-Nov-27 01:30N 52°59' E 176°52'0 0.1 991.7 5.3
2014-Nov-27 00:30N 52°59' E 176°52'1 0.5 991.4 5.3
2014-Nov-26 23:30N 52°59' E 176°52'1 0.1 991.1 5.3
2014-Nov-26 17:30N 52°59' E 176°53'0 0.0 991.8 5.4
2014-Nov-26 16:30N 52°59' E 176°53'1 0.7 992.4 5.4
2014-Nov-26 15:30N 52°59' E 176°54'3 1.6 993.1 5.4
2014-Nov-26 13:30N 52°58' E 176°49'2 0.2 994.9 5.4
2014-Nov-26 04:30N 52°56' E 176°47'1 0.6 999.3 5.3
2014-Nov-26 03:30N 52°57' E 176°47'0 0.0 999.5 5.3
2014-Nov-26 02:30N 52°57' E 176°47'1 0.7 999.6 5.3
2014-Nov-26 01:30N 52°57' E 176°46'0 0.0 999.9 5.3
2014-Nov-25 23:30N 52°57' E 176°46'3 1.3 1000.2 5.3
2014-Nov-25 21:30N 52°56' E 176°42'1 0.3 1000.3 5.3
2014-Nov-25 18:30N 52°56' E 176°41'1 0.6 998.6 5.3
2014-Nov-25 17:30N 52°55' E 176°40'0 0.1 998.3 5.3
2014-Nov-25 15:30N 52°55' E 176°40'0 0.0 997.5 5.3
2014-Nov-25 13:30N 52°55' E 176°40'2 0.5 996.6 5.3
2014-Nov-25 09:30N 52°55' E 176°37'1 0.7 994.8 5.3
2014-Nov-25 08:30N 52°55' E 176°35'2 1.9 993.8 5.3
2014-Nov-25 07:30N 52°54' E 176°32'0 0.0 993.3 5.3
2014-Nov-25 04:30N 52°54' E 176°32'0 0.4 990.5 5.4
2014-Nov-25 03:30N 52°54' E 176°32'0 0.0 989.8 5.4
2014-Nov-25 02:30N 52°54' E 176°32'1 1.4 989.2 5.4
2014-Nov-25 01:30N 52°54' E 176°29'4 0.5 988.9 5.4
2014-Nov-24 17:30N 52°54' E 176°23'1 0.7 985.0 5.5
2014-Nov-24 16:30N 52°53' E 176°22'4 3.8 983.7 5.5
2014-Nov-24 15:30N 52°52' E 176°16'0 0.1 981.2 5.5
2014-Nov-24 13:30N 52°52' E 176°16'0 0.3 983.2 5.4
2014-Nov-24 12:30N 52°52' E 176°16'0 0.1 985.7 5.4
2014-Nov-24 09:30N 52°52' E 176°17'2 0.6 991.4 5.4
2014-Nov-24 05:30N 52°51' E 176°14'2 0.8 998.6 5.4
2014-Nov-24 03:30N 52°50' E 176°12'0 0.2 1002.0 5.3
2014-Nov-24 02:30N 52°50' E 176°12'1 0.8 1003.8 5.3
2014-Nov-24 01:30N 52°49' E 176°11'1 0.7 1005.0 5.3
2014-Nov-24 00:30N 52°50' E 176°11'2 0.9 1006.6 5.3
2014-Nov-23 22:30N 52°50' E 176°08'1 0.4 1009.4 5.3
2014-Nov-23 19:30N 52°50' E 176°06'0 0.2 1011.1 5.3
2014-Nov-23 17:30N 52°50' E 176°05'1 0.5 1012.2 5.3
2014-Nov-23 15:30N 52°49' E 176°04'3 1.0 1012.2 5.3
2014-Nov-23 12:30N 52°49' E 175°59'1 0.1 1012.7 5.4
2014-Nov-23 08:30N 52°49' E 175°59'0 0.2 1011.7 5.4
2014-Nov-23 06:30N 52°49' E 175°59'1 0.7 1011.0 5.4
2014-Nov-23 05:30N 52°50' E 175°59'0 0.1 1010.6 5.4
2014-Nov-23 03:30N 52°50' E 175°59'1 1.1 1009.9 5.4
2014-Nov-23 02:30N 52°50' E 175°57'1 0.4 1009.4 5.4
2014-Nov-23 00:30N 52°50' E 175°56'1 0.6 1008.8 5.4
2014-Nov-22 23:30N 52°50' E 175°56'2 1.7 1008.8 5.5
2014-Nov-22 22:30N 52°50' E 175°53'0 0.0 1008.7 5.5
2014-Nov-22 21:30N 52°50' E 175°53'0 0.3 1008.5 5.5
2014-Nov-22 20:30N 52°50' E 175°53'0 0.0 1007.9 5.5
2014-Nov-22 19:30N 52°50' E 175°53'0 0.2 1007.7 5.5
2014-Nov-22 17:30N 52°50' E 175°52'1 1.2 1006.7 5.5
2014-Nov-22 16:30N 52°51' E 175°52'0 0.0 1006.1 5.5
2014-Nov-22 14:30N 52°51' E 175°52'2 1.1 1005.3 5.5
2014-Nov-22 12:30N 52°51' E 175°49'0 0.0 1004.6 5.5
2014-Nov-22 10:30N 52°51' E 175°49'1 0.5 1003.8 5.5
2014-Nov-22 09:30N 52°51' E 175°48'0 0.2 1003.5 5.5
2014-Nov-22 08:30N 52°51' E 175°48'0 0.0 1002.8 5.5
2014-Nov-22 07:30N 52°51' E 175°48'1 0.3 1002.2 5.5
2014-Nov-22 02:30N 52°52' E 175°47'0 0.0 999.4 5.5
2014-Nov-22 01:30N 52°52' E 175°47'1 0.8 999.0 5.5
2014-Nov-22 00:30N 52°53' E 175°46'1 0.7 998.7 5.5
2014-Nov-21 23:30N 52°53' E 175°45'1 0.5 998.3 5.5
2014-Nov-21 21:30N 52°52' E 175°44'1 0.2 997.5 5.5
2014-Nov-21 18:30N 52°52' E 175°44'0 0.0 995.6 5.5
2014-Nov-21 17:30N 52°52' E 175°44'1 0.9 995.0 5.5
2014-Nov-21 16:30N 52°51' E 175°45'1 0.3 994.2 5.5
2014-Nov-21 12:30N 52°52' E 175°43'0 0.0 992.2 5.6
2014-Nov-21 10:30N 52°52' E 175°43'1 0.4 990.9 5.6
2014-Nov-21 07:30N 52°51' E 175°41'0 0.1 989.2 5.6
2014-Nov-21 06:30N 52°51' E 175°41'1 0.3 988.6 5.6
2014-Nov-21 02:30N 52°50' E 175°40'1 0.4 986.8 5.6
2014-Nov-21 00:30N 52°50' E 175°40'0 0.2 986.2 5.6
2014-Nov-20 22:30N 52°50' E 175°39'2 0.4 986.1 5.6
2014-Nov-20 18:30N 52°50' E 175°37'1 0.4 984.9 5.6
2014-Nov-20 16:30N 52°49' E 175°36'2 0.2 984.6 5.6
2014-Nov-20 09:30N 52°49' E 175°34'1 0.7 982.7 5.6
2014-Nov-20 08:30N 52°49' E 175°32'1 1.2 982.3 5.6
2014-Nov-20 07:30N 52°48' E 175°31'2 0.4 981.7 5.6
2014-Nov-20 03:30N 52°47' E 175°28'0 0.0 979.5 5.6
2014-Nov-20 02:30N 52°47' E 175°28'0 0.3 979.1 5.6
2014-Nov-20 01:30N 52°47' E 175°28'0 0.3 978.8 5.6
2014-Nov-20 00:30N 52°47' E 175°28'0 0.0 978.7 5.6
2014-Nov-19 22:30N 52°47' E 175°28'1 0.9 978.7 5.6
2014-Nov-19 21:30N 52°48' E 175°27'0 0.0 978.7 5.5
2014-Nov-19 20:30N 52°48' E 175°27'0 0.0 978.5 5.6
2014-Nov-19 19:30N 52°48' E 175°27'1 0.4 978.2 5.6
2014-Nov-19 17:30N 52°47' E 175°26'0 0.4 978.0 5.6
2014-Nov-19 16:30N 52°47' E 175°26'1 0.3 978.2 5.6
2014-Nov-19 13:30N 52°47' E 175°25'1 0.3 979.3 5.6
2014-Nov-19 09:30N 52°46' E 175°25'1 1.1 981.4 5.6
2014-Nov-19 08:30N 52°46' E 175°23'1 0.2 982.0 5.6
2014-Nov-19 03:30N 52°45' E 175°22'0 0.0 984.2 5.6
2014-Nov-19 02:30N 52°45' E 175°22'2 1.6 984.6 5.6
2014-Nov-19 01:30N 52°44' E 175°19'0 0.2 985.2 5.6
2014-Nov-19 00:30N 52°45' E 175°19'1 0.7 985.8 5.6
2014-Nov-18 23:30N 52°44' E 175°20'1 0.3 986.2 5.6
2014-Nov-18 20:30N 52°44' E 175°19'0 0.0 987.3 5.6
2014-Nov-18 19:30N 52°44' E 175°19'1 0.2 987.6 5.6
2014-Nov-18 16:30N 52°44' E 175°18'1 0.2 989.3 5.6
2014-Nov-18 13:30N 52°44' E 175°17'1 0.4 991.3 5.6
2014-Nov-18 09:30N 52°43' E 175°16'   993.9 5.6
Track history (hours):
 
Tides and Currents Weather Stations Pressure Air Temp Water Temp Dewpoint Dewpoint Depression Visibility Wind Speed Wind Dir Waves Ship Positions

Drifting buoy 46770

Last reported at 2014-Nov-28 09:30 UTC. Time now 2014-Nov-28 12:16 UTC.
Position N 53°05' E 177°07'.

Barometer 1015.8 mb
Water temperature 5.5 ° C

Date/timePositionNaut miles runAvg speedWind from/ knotsBaromVisibWave heightAir tempDewpointWater temp
2014-Nov-28 09:30N 53°05' E 177°07'1 0.5 1015.8 5.5
2014-Nov-28 07:30N 53°05' E 177°06'2 0.6 1014.4 5.5
2014-Nov-28 04:30N 53°04' E 177°04'0 0.0 1010.9 5.4
2014-Nov-28 03:30N 53°04' E 177°04'0 0.4 1009.7 5.4
2014-Nov-28 02:30N 53°04' E 177°03'1 0.6 1008.5 5.4
2014-Nov-28 01:30N 53°03' E 177°03'0 0.4 1007.2 5.3
2014-Nov-28 00:30N 53°03' E 177°02'1 0.6 1006.0 5.3
2014-Nov-27 23:30N 53°02' E 177°02'0 0.4 1004.8 5.3
2014-Nov-27 22:30N 53°03' E 177°02'1 0.7 1003.6 5.3
2014-Nov-27 21:30N 53°02' E 177°01'0 0.2 1002.4 5.3
2014-Nov-27 20:30N 53°03' E 177°01'1 0.7 1001.5 5.3
2014-Nov-27 19:30N 53°02' E 177°01'1 0.4 1000.5 5.3
2014-Nov-27 17:30N 53°02' E 177°00'0 0.0 999.5 5.3
2014-Nov-27 16:30N 53°02' E 177°00'1 0.5 999.4 5.3
2014-Nov-27 15:30N 53°01' E 176°60'2 1.0 999.3 5.3
2014-Nov-27 13:30N 53°00' E 176°57'1 0.2 999.2 5.3
2014-Nov-27 08:30N 52°59' E 176°56'0 0.1 997.5 5.3
2014-Nov-27 07:30N 52°59' E 176°56'1 0.3 996.8 5.3
2014-Nov-27 03:30N 52°59' E 176°54'0 0.5 993.4 5.3
2014-Nov-27 02:30N 52°60' E 176°53'1 0.9 992.6 5.3
2014-Nov-27 01:30N 52°59' E 176°52'0 0.1 991.7 5.3
2014-Nov-27 00:30N 52°59' E 176°52'1 0.5 991.4 5.3
2014-Nov-26 23:30N 52°59' E 176°52'1 0.1 991.1 5.3
2014-Nov-26 17:30N 52°59' E 176°53'0 0.0 991.8 5.4
2014-Nov-26 16:30N 52°59' E 176°53'1 0.7 992.4 5.4
2014-Nov-26 15:30N 52°59' E 176°54'3 1.6 993.1 5.4
2014-Nov-26 13:30N 52°58' E 176°49'2 0.2 994.9 5.4
2014-Nov-26 04:30N 52°56' E 176°47'1 0.6 999.3 5.3
2014-Nov-26 03:30N 52°57' E 176°47'0 0.0 999.5 5.3
2014-Nov-26 02:30N 52°57' E 176°47'1 0.7 999.6 5.3
2014-Nov-26 01:30N 52°57' E 176°46'0 0.0 999.9 5.3
2014-Nov-25 23:30N 52°57' E 176°46'3 1.3 1000.2 5.3
2014-Nov-25 21:30N 52°56' E 176°42'1 0.3 1000.3 5.3
2014-Nov-25 18:30N 52°56' E 176°41'1 0.6 998.6 5.3
2014-Nov-25 17:30N 52°55' E 176°40'0 0.1 998.3 5.3
2014-Nov-25 15:30N 52°55' E 176°40'0 0.0 997.5 5.3
2014-Nov-25 13:30N 52°55' E 176°40'2 0.5 996.6 5.3
2014-Nov-25 09:30N 52°55' E 176°37'1 0.7 994.8 5.3
2014-Nov-25 08:30N 52°55' E 176°35'2 1.9 993.8 5.3
2014-Nov-25 07:30N 52°54' E 176°32'0 0.0 993.3 5.3
2014-Nov-25 04:30N 52°54' E 176°32'0 0.4 990.5 5.4
2014-Nov-25 03:30N 52°54' E 176°32'0 0.0 989.8 5.4
2014-Nov-25 02:30N 52°54' E 176°32'1 1.4 989.2 5.4
2014-Nov-25 01:30N 52°54' E 176°29'4 0.5 988.9 5.4
2014-Nov-24 17:30N 52°54' E 176°23'1 0.7 985.0 5.5
2014-Nov-24 16:30N 52°53' E 176°22'4 3.8 983.7 5.5
2014-Nov-24 15:30N 52°52' E 176°16'0 0.1 981.2 5.5
2014-Nov-24 13:30N 52°52' E 176°16'0 0.3 983.2 5.4
2014-Nov-24 12:30N 52°52' E 176°16'0 0.1 985.7 5.4
2014-Nov-24 09:30N 52°52' E 176°17'2 0.6 991.4 5.4
2014-Nov-24 05:30N 52°51' E 176°14'2 0.8 998.6 5.4
2014-Nov-24 03:30N 52°50' E 176°12'0 0.2 1002.0 5.3
2014-Nov-24 02:30N 52°50' E 176°12'1 0.8 1003.8 5.3
2014-Nov-24 01:30N 52°49' E 176°11'1 0.7 1005.0 5.3
2014-Nov-24 00:30N 52°50' E 176°11'2 0.9 1006.6 5.3
2014-Nov-23 22:30N 52°50' E 176°08'1 0.4 1009.4 5.3
2014-Nov-23 19:30N 52°50' E 176°06'0 0.2 1011.1 5.3
2014-Nov-23 17:30N 52°50' E 176°05'1 0.5 1012.2 5.3
2014-Nov-23 15:30N 52°49' E 176°04'3 1.0 1012.2 5.3
2014-Nov-23 12:30N 52°49' E 175°59'1 0.1 1012.7 5.4
2014-Nov-23 08:30N 52°49' E 175°59'0 0.2 1011.7 5.4
2014-Nov-23 06:30N 52°49' E 175°59'1 0.7 1011.0 5.4
2014-Nov-23 05:30N 52°50' E 175°59'0 0.1 1010.6 5.4
2014-Nov-23 03:30N 52°50' E 175°59'1 1.1 1009.9 5.4
2014-Nov-23 02:30N 52°50' E 175°57'1 0.4 1009.4 5.4
2014-Nov-23 00:30N 52°50' E 175°56'1 0.6 1008.8 5.4
2014-Nov-22 23:30N 52°50' E 175°56'2 1.7 1008.8 5.5
2014-Nov-22 22:30N 52°50' E 175°53'0 0.0 1008.7 5.5
2014-Nov-22 21:30N 52°50' E 175°53'0 0.3 1008.5 5.5
2014-Nov-22 20:30N 52°50' E 175°53'0 0.0 1007.9 5.5
2014-Nov-22 19:30N 52°50' E 175°53'0 0.2 1007.7 5.5
2014-Nov-22 17:30N 52°50' E 175°52'1 1.2 1006.7 5.5
2014-Nov-22 16:30N 52°51' E 175°52'0 0.0 1006.1 5.5
2014-Nov-22 14:30N 52°51' E 175°52'2 1.1 1005.3 5.5
2014-Nov-22 12:30N 52°51' E 175°49'0 0.0 1004.6 5.5
2014-Nov-22 10:30N 52°51' E 175°49'1 0.5 1003.8 5.5
2014-Nov-22 09:30N 52°51' E 175°48'0 0.2 1003.5 5.5
2014-Nov-22 08:30N 52°51' E 175°48'0 0.0 1002.8 5.5
2014-Nov-22 07:30N 52°51' E 175°48'1 0.3 1002.2 5.5
2014-Nov-22 02:30N 52°52' E 175°47'0 0.0 999.4 5.5
2014-Nov-22 01:30N 52°52' E 175°47'1 0.8 999.0 5.5
2014-Nov-22 00:30N 52°53' E 175°46'1 0.7 998.7 5.5
2014-Nov-21 23:30N 52°53' E 175°45'1 0.5 998.3 5.5
2014-Nov-21 21:30N 52°52' E 175°44'1 0.2 997.5 5.5
2014-Nov-21 18:30N 52°52' E 175°44'0 0.0 995.6 5.5
2014-Nov-21 17:30N 52°52' E 175°44'1 0.9 995.0 5.5
2014-Nov-21 16:30N 52°51' E 175°45'1 0.3 994.2 5.5
2014-Nov-21 12:30N 52°52' E 175°43'0 0.0 992.2 5.6
2014-Nov-21 10:30N 52°52' E 175°43'1 0.4 990.9 5.6
2014-Nov-21 07:30N 52°51' E 175°41'0 0.1 989.2 5.6
2014-Nov-21 06:30N 52°51' E 175°41'1 0.3 988.6 5.6
2014-Nov-21 02:30N 52°50' E 175°40'1 0.4 986.8 5.6
2014-Nov-21 00:30N 52°50' E 175°40'0 0.2 986.2 5.6
2014-Nov-20 22:30N 52°50' E 175°39'2 0.4 986.1 5.6
2014-Nov-20 18:30N 52°50' E 175°37'1 0.4 984.9 5.6
2014-Nov-20 16:30N 52°49' E 175°36'2 0.2 984.6 5.6
2014-Nov-20 09:30N 52°49' E 175°34'1 0.7 982.7 5.6
2014-Nov-20 08:30N 52°49' E 175°32'1 1.2 982.3 5.6
2014-Nov-20 07:30N 52°48' E 175°31'2 0.4 981.7 5.6
2014-Nov-20 03:30N 52°47' E 175°28'0 0.0 979.5 5.6
2014-Nov-20 02:30N 52°47' E 175°28'0 0.3 979.1 5.6
2014-Nov-20 01:30N 52°47' E 175°28'0 0.3 978.8 5.6
2014-Nov-20 00:30N 52°47' E 175°28'0 0.0 978.7 5.6
2014-Nov-19 22:30N 52°47' E 175°28'1 0.9 978.7 5.6
2014-Nov-19 21:30N 52°48' E 175°27'0 0.0 978.7 5.5
2014-Nov-19 20:30N 52°48' E 175°27'0 0.0 978.5 5.6
2014-Nov-19 19:30N 52°48' E 175°27'1 0.4 978.2 5.6
2014-Nov-19 17:30N 52°47' E 175°26'0 0.4 978.0 5.6
2014-Nov-19 16:30N 52°47' E 175°26'1 0.3 978.2 5.6
2014-Nov-19 13:30N 52°47' E 175°25'1 0.3 979.3 5.6
2014-Nov-19 09:30N 52°46' E 175°25'1 1.1 981.4 5.6
2014-Nov-19 08:30N 52°46' E 175°23'1 0.2 982.0 5.6
2014-Nov-19 03:30N 52°45' E 175°22'0 0.0 984.2 5.6
2014-Nov-19 02:30N 52°45' E 175°22'2 1.6 984.6 5.6
2014-Nov-19 01:30N 52°44' E 175°19'0 0.2 985.2 5.6
2014-Nov-19 00:30N 52°45' E 175°19'1 0.7 985.8 5.6
2014-Nov-18 23:30N 52°44' E 175°20'1 0.3 986.2 5.6
2014-Nov-18 20:30N 52°44' E 175°19'0 0.0 987.3 5.6
2014-Nov-18 19:30N 52°44' E 175°19'1 0.2 987.6 5.6
2014-Nov-18 16:30N 52°44' E 175°18'1 0.2 989.3 5.6
2014-Nov-18 13:30N 52°44' E 175°17'1 0.4 991.3 5.6
2014-Nov-18 09:30N 52°43' E 175°16'   993.9 5.6

Dump ship's entire track history